»·PEaware :: N828SP KWHP-KIZA

N828SP :: KWHP-KIZA

FLIGHT INFORMATION

Flight Status: Arrived
Operator: Privately registered:
United States
More flights under this callsign
Pilot: Jon S. (43478)
Aircraft: CESSNA 172 SKYHAWK
(C172)
More flights by this aircraft type
Origin: KWHP Whiteman
United States
Destination: KIZA Santa Ynez
United States
More flights between these airports :: More routes between these airports
Route:
File this flight plan on PilotEdge
Remarks:
Altitude:
(Current/Filed)
8,500ft
Speed:
(Current/Filed)
0kts
Departed: 04-Nov-23 03:56 PM
Arrived: 04-Nov-23 04:45 PM
Distance/Time
Traveled:
85nm/0:49
Distance/Time
To Go:
Arrived

Flight Plot

Page will automatically refresh every two minutes.

Flight plan parsing failed; only flown route is shown


Map Options




Map Legend


Flown Route
Filed Route
Departure Airport
Arrival Airport
Navaid (VOR, NDB)
Fix

Horizontal Profiles

Position Reports

Time Latitude Longitude Heading Altitude Ground
Speed
04-Nov-23 15:54 34.255611 -118.408932 149 970ft 0kts
04-Nov-23 15:55 34.256490 -118.410502 317 975ft 50kts
04-Nov-23 15:56 34.271866 -118.427305 318 1679ft 78kts
04-Nov-23 15:57 34.289467 -118.442027 334 2481ft 78kts
04-Nov-23 15:58 34.308151 -118.454169 334 3259ft 76kts
04-Nov-23 15:59 34.327509 -118.461391 342 4115ft 75kts
04-Nov-23 16:00 34.343124 -118.476896 286 4895ft 81kts
04-Nov-23 16:01 34.344471 -118.504652 275 5640ft 87kts
04-Nov-23 16:02 34.346909 -118.532633 270 6465ft 76kts
04-Nov-23 16:03 34.345281 -118.559738 264 7078ft 86kts
04-Nov-23 16:04 34.343614 -118.589616 273 7705ft 91kts
04-Nov-23 16:05 34.345311 -118.619753 275 8309ft 94kts
04-Nov-23 16:06 34.351496 -118.655381 287 8541ft 115kts
04-Nov-23 16:07 34.360029 -118.693579 282 8663ft 122kts
04-Nov-23 16:08 34.367562 -118.734218 285 8735ft 115kts
04-Nov-23 16:09 34.375117 -118.774017 281 8550ft 121kts
04-Nov-23 16:10 34.381973 -118.813832 283 8436ft 119kts
04-Nov-23 16:11 34.388969 -118.852576 284 8446ft 117kts
04-Nov-23 16:12 34.397958 -118.890141 285 8476ft 115kts
04-Nov-23 16:13 34.408011 -118.927727 286 8491ft 111kts
04-Nov-23 16:14 34.419032 -118.963898 284 8442ft 117kts
04-Nov-23 16:15 34.428262 -119.000748 282 8386ft 123kts
04-Nov-23 16:16 34.436698 -119.039721 282 8382ft 116kts
04-Nov-23 16:17 34.444953 -119.077136 282 8390ft 114kts
04-Nov-23 16:18 34.453036 -119.113663 282 8477ft 110kts
04-Nov-23 16:19 34.460142 -119.150944 278 8518ft 118kts
04-Nov-23 16:20 34.466271 -119.190849 278 8523ft 121kts
04-Nov-23 16:21 34.472339 -119.231377 278 8522ft 123kts
04-Nov-23 16:22 34.478379 -119.272179 278 8519ft 123kts
04-Nov-23 16:23 34.484406 -119.313134 278 8517ft 123kts
04-Nov-23 16:25 34.490220 -119.353992 278 8510ft 125kts
04-Nov-23 16:26 34.495300 -119.396528 278 8516ft 128kts
04-Nov-23 16:27 34.500420 -119.439572 279 8517ft 129kts
04-Nov-23 16:28 34.507378 -119.482416 281 8517ft 129kts
04-Nov-23 16:29 34.514361 -119.525364 281 8517ft 129kts
04-Nov-23 16:30 34.521310 -119.568226 281 8515ft 129kts
04-Nov-23 16:31 34.528240 -119.611093 281 8514ft 129kts
04-Nov-23 16:32 34.536598 -119.652904 286 8269ft 128kts
04-Nov-23 16:33 34.550212 -119.690284 296 7836ft 121kts
04-Nov-23 16:34 34.561333 -119.728429 282 7331ft 119kts
04-Nov-23 16:35 34.570797 -119.766965 285 6848ft 118kts
04-Nov-23 16:36 34.580682 -119.805004 285 6378ft 115kts
04-Nov-23 16:37 34.588434 -119.843346 280 5604ft 115kts
04-Nov-23 16:38 34.594931 -119.881563 272 4707ft 118kts
04-Nov-23 16:39 34.593561 -119.919166 263 3737ft 116kts
04-Nov-23 16:40 34.592969 -119.957241 274 2821ft 112kts
04-Nov-23 16:41 34.595889 -119.987342 278 2399ft 83kts
04-Nov-23 16:42 34.599211 -120.015721 281 2172ft 74kts
04-Nov-23 16:43 34.602284 -120.039722 278 1703ft 63kts
04-Nov-23 16:44 34.604908 -120.059950 277 1048ft 58kts
04-Nov-23 16:45 34.606921 -120.076402 284 657ft 20kts

Navigation Log

Ident Type
Flight plan parsing failed, navigation log unavailable